Time;durP1;ratioP1;P1;durP2;ratioP2;P2;SDS_P1;SDS_P2;PMS_P1;PMS_P2;Temp;Humidity;BMP_temperature;BMP_pressure;BME280_temperature;BME280_humidity;BME280_pressure;Samples;Min_cycle;Max_cycle;Signal;HPM_P1;HPM_P2
2021/12/04 00:02:07;;;;;;;1.08;0.75;;;;;;;;;;7386781;19;20015;-77
2021/12/04 00:04:35;;;;;;;1.75;0.95;;;;;;;;;;7387042;19;20003;-77
2021/12/04 00:07:03;;;;;;;1.77;0.73;;;;;;;;;;7386949;19;20014;-77
2021/12/04 00:09:29;;;;;;;1.00;0.70;;;;;;;;;;7384428;19;20008;-76
2021/12/04 00:12:03;;;;;;;1.67;0.68;;;;;;;;;;7385675;19;20078;-77
2021/12/04 00:14:35;;;;;;;0.47;0.47;;;;;;;;;;7386562;19;20007;-77
2021/12/04 00:17:00;;;;;;;1.20;0.75;;;;;;;;;;7386411;19;20035;-78
2021/12/04 00:19:27;;;;;;;1.38;0.85;;;;;;;;;;7383847;19;20062;-78
2021/12/04 00:21:53;;;;;;;1.20;0.65;;;;;;;;;;7382823;19;20023;-78
2021/12/04 00:24:19;;;;;;;0.85;0.55;;;;;;;;;;7385015;19;20003;-78
2021/12/04 00:26:46;;;;;;;0.68;0.55;;;;;;;;;;7384928;19;20050;-77
2021/12/04 00:29:11;;;;;;;0.75;0.68;;;;;;;;;;7383295;19;19998;-78
2021/12/04 00:31:37;;;;;;;0.90;0.45;;;;;;;;;;7383560;19;20339;-77
2021/12/04 00:34:03;;;;;;;0.82;0.68;;;;;;;;;;7384800;19;20003;-78
2021/12/04 00:37:14;;;;;;;1.10;1.00;;;;;;;;;;7386679;19;20041;-76
2021/12/04 00:50:16;;;;;;;0.60;0.43;;;;;;;;;;7384155;19;20018;-76
2021/12/04 00:52:41;;;;;;;0.88;0.45;;;;;;;;;;7384605;19;20003;-78
2021/12/04 00:55:07;;;;;;;0.82;0.43;;;;;;;;;;7383213;19;20013;-77
2021/12/04 00:57:33;;;;;;;0.77;0.50;;;;;;;;;;7385382;19;20027;-77
2021/12/04 00:59:59;;;;;;;0.40;0.30;;;;;;;;;;7383447;19;20493;-77
2021/12/04 01:02:25;;;;;;;0.20;0.20;;;;;;;;;;7385321;19;20153;-76
2021/12/04 01:04:51;;;;;;;1.70;0.52;;;;;;;;;;7388486;19;20085;-77
2021/12/04 01:07:16;;;;;;;0.63;0.60;;;;;;;;;;7392359;19;20070;-76
2021/12/04 01:09:43;;;;;;;1.20;0.57;;;;;;;;;;7390165;19;20002;-77
2021/12/04 01:12:09;;;;;;;1.52;0.57;;;;;;;;;;7390618;19;20311;-78
2021/12/04 01:14:35;;;;;;;0.50;0.47;;;;;;;;;;7390714;19;20036;-77
2021/12/04 01:17:00;;;;;;;0.68;0.57;;;;;;;;;;7393078;19;20006;-79
2021/12/04 01:19:26;;;;;;;0.60;0.60;;;;;;;;;;7391796;19;20003;-77
2021/12/04 01:21:53;;;;;;;1.00;0.70;;;;;;;;;;7387074;19;20106;-77
2021/12/04 01:24:19;;;;;;;0.70;0.43;;;;;;;;;;7391892;19;20027;-78
2021/12/04 01:26:46;;;;;;;0.55;0.52;;;;;;;;;;7393356;19;20031;-79
2021/12/04 01:29:11;;;;;;;0.93;0.63;;;;;;;;;;7391024;19;20006;-77
2021/12/04 01:31:36;;;;;;;0.77;0.52;;;;;;;;;;7390585;19;20070;-77
2021/12/04 01:34:02;;;;;;;1.52;0.80;;;;;;;;;;7389884;19;20007;-77
2021/12/04 01:36:29;;;;;;;0.98;0.70;;;;;;;;;;7392344;19;20023;-78
2021/12/04 01:38:54;;;;;;;1.50;0.70;;;;;;;;;;7390880;19;20010;-77
2021/12/04 01:41:19;;;;;;;1.30;0.88;;;;;;;;;;7390026;19;20002;-77
2021/12/04 01:43:45;;;;;;;1.50;0.70;;;;;;;;;;7390997;19;20329;-78
2021/12/04 01:46:11;;;;;;;1.27;0.70;;;;;;;;;;7391749;19;20046;-77
2021/12/04 01:48:37;;;;;;;0.68;0.50;;;;;;;;;;7391549;19;20035;-77
2021/12/04 01:51:03;;;;;;;0.88;0.50;;;;;;;;;;7389659;19;20010;-76
2021/12/04 01:53:28;;;;;;;0.75;0.55;;;;;;;;;;7391372;19;20323;-77
2021/12/04 01:55:55;;;;;;;1.10;0.65;;;;;;;;;;7391195;19;20015;-77
2021/12/04 01:58:22;;;;;;;0.57;0.50;;;;;;;;;;7388763;19;20053;-76
2021/12/04 02:00:48;;;;;;;1.02;0.63;;;;;;;;;;7388593;19;20017;-80
2021/12/04 02:03:14;;;;;;;0.60;0.55;;;;;;;;;;7392143;19;20010;-77
2021/12/04 02:05:41;;;;;;;0.65;0.63;;;;;;;;;;7391058;19;20018;-77
2021/12/04 02:08:08;;;;;;;0.40;0.40;;;;;;;;;;7389196;19;20010;-77
2021/12/04 02:10:34;;;;;;;0.30;0.30;;;;;;;;;;7388818;19;20006;-77
2021/12/04 02:12:59;;;;;;;1.23;0.60;;;;;;;;;;7389511;19;20022;-78
2021/12/04 02:15:25;;;;;;;0.40;0.30;;;;;;;;;;7384742;19;20030;-76
2021/12/04 02:17:51;;;;;;;1.23;0.57;;;;;;;;;;7390717;19;20018;-77
2021/12/04 02:20:19;;;;;;;0.68;0.60;;;;;;;;;;7387649;19;20010;-77
2021/12/04 02:22:46;;;;;;;0.45;0.45;;;;;;;;;;7390812;19;20041;-78
2021/12/04 02:25:12;;;;;;;1.33;0.60;;;;;;;;;;7389560;19;20026;-76
2021/12/04 02:27:37;;;;;;;0.25;0.25;;;;;;;;;;7390591;19;20027;-77
2021/12/04 02:30:07;;;;;;;0.55;0.30;;;;;;;;;;7388114;19;20018;-77
2021/12/04 02:32:33;;;;;;;1.40;0.70;;;;;;;;;;7390012;19;20030;-78
2021/12/04 02:34:59;;;;;;;1.08;0.40;;;;;;;;;;7387290;19;20003;-76
2021/12/04 02:37:24;;;;;;;0.40;0.40;;;;;;;;;;7391273;19;20461;-79
2021/12/04 02:39:57;;;;;;;0.63;0.45;;;;;;;;;;7387636;19;20140;-76
2021/12/04 02:42:23;;;;;;;0.85;0.70;;;;;;;;;;7388268;19;20021;-77
2021/12/04 02:44:49;;;;;;;1.92;1.27;;;;;;;;;;7388572;19;20013;-77
2021/12/04 02:47:16;;;;;;;1.38;0.57;;;;;;;;;;7387204;19;20010;-76
2021/12/04 02:49:42;;;;;;;1.13;0.55;;;;;;;;;;7384989;19;20010;-78
2021/12/04 02:52:09;;;;;;;0.93;0.70;;;;;;;;;;7386746;19;20029;-78
2021/12/04 02:54:35;;;;;;;0.52;0.35;;;;;;;;;;7385470;19;20030;-76
2021/12/04 02:57:03;;;;;;;0.55;0.55;;;;;;;;;;7388354;19;20402;-76
2021/12/04 02:59:29;;;;;;;0.65;0.50;;;;;;;;;;7385614;19;20015;-76
2021/12/04 03:01:56;;;;;;;0.50;0.50;;;;;;;;;;7383948;19;20014;-76
2021/12/04 03:04:23;;;;;;;0.98;0.35;;;;;;;;;;7385488;19;20017;-76
2021/12/04 03:06:49;;;;;;;0.20;0.20;;;;;;;;;;7377340;19;20009;-76
2021/12/04 03:09:15;;;;;;;0.70;0.50;;;;;;;;;;7383164;19;20061;-76
2021/12/04 03:11:41;;;;;;;0.40;0.40;;;;;;;;;;7384848;19;20318;-76
2021/12/04 03:14:07;;;;;;;0.60;0.50;;;;;;;;;;7384839;19;21656;-76
2021/12/04 03:16:34;;;;;;;0.30;0.30;;;;;;;;;;7388113;19;20014;-76
2021/12/04 03:19:00;;;;;;;0.85;0.63;;;;;;;;;;7383979;19;20446;-77
2021/12/04 03:21:26;;;;;;;0.70;0.30;;;;;;;;;;7383170;19;20094;-77
2021/12/04 03:24:04;;;;;;;0.70;0.30;;;;;;;;;;7387206;19;20009;-77
2021/12/04 03:26:29;;;;;;;0.50;0.50;;;;;;;;;;7383814;19;20486;-77
2021/12/04 03:28:56;;;;;;;1.80;0.40;;;;;;;;;;7380768;19;20002;-77
2021/12/04 03:42:00;;;;;;;0.80;0.30;;;;;;;;;;7383647;19;20017;-77
2021/12/04 03:44:25;;;;;;;0.50;0.20;;;;;;;;;;7383241;19;20003;-77
2021/12/04 03:46:51;;;;;;;0.47;0.28;;;;;;;;;;7385232;19;20039;-76
2021/12/04 03:49:17;;;;;;;0.88;0.47;;;;;;;;;;7383230;19;20424;-77
2021/12/04 03:51:42;;;;;;;0.50;0.20;;;;;;;;;;7383528;19;20010;-77
2021/12/04 03:54:07;;;;;;;0.38;0.20;;;;;;;;;;7383382;19;20018;-79
2021/12/04 03:56:35;;;;;;;0.68;0.47;;;;;;;;;;7385486;19;20007;-77
2021/12/04 03:59:01;;;;;;;0.30;0.30;;;;;;;;;;7383135;19;20018;-78
2021/12/04 04:01:26;;;;;;;0.40;0.40;;;;;;;;;;7382356;19;20362;-78
2021/12/04 04:03:51;;;;;;;0.47;0.47;;;;;;;;;;7381337;19;20015;-77
2021/12/04 04:06:17;;;;;;;0.43;0.43;;;;;;;;;;7381792;19;20014;-77
2021/12/04 04:08:43;;;;;;;0.38;0.38;;;;;;;;;;7383436;19;20084;-77
2021/12/04 04:11:08;;;;;;;0.45;0.40;;;;;;;;;;7383621;19;20014;-78
2021/12/04 04:13:33;;;;;;;0.68;0.40;;;;;;;;;;7382992;19;20018;-77
2021/12/04 04:16:00;;;;;;;0.52;0.47;;;;;;;;;;7384706;19;20010;-77
2021/12/04 04:18:27;;;;;;;0.20;0.20;;;;;;;;;;7381121;19;20003;-77
2021/12/04 04:20:53;;;;;;;1.20;0.68;;;;;;;;;;7381655;19;20493;-77
2021/12/04 04:23:18;;;;;;;1.00;0.50;;;;;;;;;;7383041;19;20006;-76
2021/12/04 04:25:43;;;;;;;0.75;0.55;;;;;;;;;;7383133;19;20003;-78
2021/12/04 04:28:09;;;;;;;0.88;0.60;;;;;;;;;;7383685;19;20023;-78
2021/12/04 04:30:36;;;;;;;0.60;0.50;;;;;;;;;;7383206;19;20021;-79
2021/12/04 04:33:03;;;;;;;0.30;0.30;;;;;;;;;;7382765;19;20372;-77
2021/12/04 04:35:31;;;;;;;0.50;0.50;;;;;;;;;;7380657;19;20461;-76
2021/12/04 04:38:12;;;;;;;0.50;0.50;;;;;;;;;;7382797;19;20044;-76
2021/12/04 05:10:15;;;;;;;0.65;0.30;;;;;;;;;;7387363;19;20026;-76
2021/12/04 05:11:03;;;;;;;0.50;0.40;;;;;;;;;;7386747;19;20028;-76
2021/12/04 05:13:29;;;;;;;0.93;0.47;;;;;;;;;;7389228;19;20015;-78
2021/12/04 05:15:58;;;;;;;0.38;0.38;;;;;;;;;;7389576;19;20345;-77
2021/12/04 05:20:55;;;;;;;0.63;0.63;;;;;;;;;;7389579;19;20449;-77
2021/12/04 05:23:22;;;;;;;0.60;0.60;;;;;;;;;;7390911;19;20018;-78
2021/12/04 05:25:47;;;;;;;0.50;0.50;;;;;;;;;;7389998;19;19995;-77
2021/12/04 05:28:13;;;;;;;0.38;0.38;;;;;;;;;;7390720;19;20042;-78
2021/12/04 05:30:38;;;;;;;1.25;0.65;;;;;;;;;;7388370;19;20386;-78
2021/12/04 05:33:05;;;;;;;0.47;0.32;;;;;;;;;;7389837;19;20109;-78
2021/12/04 05:35:31;;;;;;;0.55;0.30;;;;;;;;;;7388535;19;19998;-76
2021/12/04 05:37:57;;;;;;;0.52;0.32;;;;;;;;;;7389235;19;20117;-77
2021/12/04 05:40:22;;;;;;;1.23;0.50;;;;;;;;;;7386179;19;20413;-76
2021/12/04 05:42:48;;;;;;;0.15;0.15;;;;;;;;;;7389836;19;20023;-77
2021/12/04 05:45:23;;;;;;;0.38;0.28;;;;;;;;;;7389809;19;20034;-78
2021/12/04 05:47:57;;;;;;;0.30;0.30;;;;;;;;;;7388753;19;20011;-78
2021/12/04 05:50:42;;;;;;;0.13;0.13;;;;;;;;;;7385173;19;20014;-77
2021/12/04 05:55:55;;;;;;;18.98;8.50;;;;;;;;;;7388510;19;20927;-77
2021/12/04 05:58:27;;;;;;;2.38;0.90;;;;;;;;;;7387453;19;20031;-78
2021/12/04 06:00:55;;;;;;;0.82;0.57;;;;;;;;;;7389283;19;20498;-77
2021/12/04 06:03:20;;;;;;;0.82;0.47;;;;;;;;;;7386098;19;20003;-78
2021/12/04 06:05:46;;;;;;;0.55;0.55;;;;;;;;;;7388149;19;20114;-78
2021/12/04 06:08:11;;;;;;;0.80;0.80;;;;;;;;;;7386494;19;20662;-78
2021/12/04 06:10:37;;;;;;;2.58;0.90;;;;;;;;;;7379831;19;20013;-78
2021/12/04 06:13:03;;;;;;;0.40;0.40;;;;;;;;;;7386375;19;20006;-73
2021/12/04 06:15:28;;;;;;;0.43;0.32;;;;;;;;;;7384230;19;20782;-73
2021/12/04 06:17:55;;;;;;;0.30;0.30;;;;;;;;;;7387820;19;20334;-73
2021/12/04 06:23:05;;;;;;;0.57;0.43;;;;;;;;;;7386407;19;20019;-74
2021/12/04 06:25:30;;;;;;;1.33;0.73;;;;;;;;;;7385378;19;20709;-72
2021/12/04 06:27:56;;;;;;;0.95;0.60;;;;;;;;;;7346539;19;20011;-74
2021/12/04 06:30:22;;;;;;;1.33;0.70;;;;;;;;;;7376368;19;20006;-78
2021/12/04 06:32:48;;;;;;;1.30;0.60;;;;;;;;;;7381601;19;20106;-75
2021/12/04 06:35:17;;;;;;;15.77;7.70;;;;;;;;;;7380865;19;20026;-77
2021/12/04 06:37:43;;;;;;;1.90;1.17;;;;;;;;;;7379044;19;20145;-74
2021/12/04 06:40:11;;;;;;;2.08;0.85;;;;;;;;;;7379315;19;20022;-74
2021/12/04 06:42:37;;;;;;;2.88;0.70;;;;;;;;;;7381076;19;20048;-73
2021/12/04 06:45:05;;;;;;;3.15;0.82;;;;;;;;;;7385663;19;20017;-74
2021/12/04 06:47:33;;;;;;;4.57;1.70;;;;;;;;;;7384951;19;20047;-75
2021/12/04 06:50:09;;;;;;;1.38;0.75;;;;;;;;;;7382248;19;20018;-72
2021/12/04 06:52:36;;;;;;;1.73;0.68;;;;;;;;;;7384860;19;19998;-73
2021/12/04 06:55:02;;;;;;;3.30;0.98;;;;;;;;;;7378393;19;20017;-74
2021/12/04 06:57:36;;;;;;;1.20;0.68;;;;;;;;;;7383457;19;20007;-74
2021/12/04 07:00:04;;;;;;;0.85;0.60;;;;;;;;;;7380120;19;20094;-75
2021/12/04 07:02:29;;;;;;;0.70;0.50;;;;;;;;;;7382272;19;20387;-73
2021/12/04 07:04:54;;;;;;;1.77;0.80;;;;;;;;;;7384979;19;20023;-72
2021/12/04 07:07:23;;;;;;;1.13;0.65;;;;;;;;;;7382234;19;20056;-72
2021/12/04 07:09:48;;;;;;;1.25;0.70;;;;;;;;;;7385308;19;20748;-73
2021/12/04 07:12:13;;;;;;;13.18;5.57;;;;;;;;;;7386073;19;20019;-73
2021/12/04 07:14:39;;;;;;;1.75;1.00;;;;;;;;;;7382948;19;20059;-73
2021/12/04 07:17:06;;;;;;;0.82;0.60;;;;;;;;;;7385052;19;20019;-72
2021/12/04 07:19:32;;;;;;;0.70;0.60;;;;;;;;;;7380672;19;20675;-73
2021/12/04 07:21:58;;;;;;;1.88;1.10;;;;;;;;;;7384188;19;20038;-72
2021/12/04 07:24:26;;;;;;;1.40;0.73;;;;;;;;;;7381319;19;20022;-73
2021/12/04 07:26:51;;;;;;;0.98;0.57;;;;;;;;;;7383472;19;20002;-74
2021/12/04 07:29:16;;;;;;;3.65;1.30;;;;;;;;;;7384336;19;20493;-72
2021/12/04 07:31:42;;;;;;;4.07;2.40;;;;;;;;;;7382834;19;20864;-73
2021/12/04 07:34:07;;;;;;;2.78;1.40;;;;;;;;;;7382474;19;20036;-75
2021/12/04 07:36:33;;;;;;;1.88;0.80;;;;;;;;;;7383126;19;20009;-73
2021/12/04 07:38:59;;;;;;;1.00;0.68;;;;;;;;;;7376957;19;20465;-76
2021/12/04 07:41:26;;;;;;;0.65;0.60;;;;;;;;;;7378304;19;20357;-74
2021/12/04 07:43:52;;;;;;;1.25;0.75;;;;;;;;;;7384635;19;20020;-75
2021/12/04 07:46:17;;;;;;;0.82;0.55;;;;;;;;;;7387323;19;20007;-72
2021/12/04 07:48:43;;;;;;;4.00;0.95;;;;;;;;;;7386235;19;20032;-72
2021/12/04 07:51:09;;;;;;;1.00;0.70;;;;;;;;;;7386293;19;20025;-76
2021/12/04 07:53:34;;;;;;;6.22;2.88;;;;;;;;;;7383688;19;20053;-73
2021/12/04 07:56:00;;;;;;;1.58;0.88;;;;;;;;;;7386160;19;20006;-74
2021/12/04 07:58:26;;;;;;;1.77;0.80;;;;;;;;;;7381579;19;20633;-73
2021/12/04 08:00:51;;;;;;;0.85;0.77;;;;;;;;;;7382561;19;20019;-74
2021/12/04 08:03:17;;;;;;;1.67;0.75;;;;;;;;;;7380051;19;19998;-73
2021/12/04 08:05:43;;;;;;;1.95;0.98;;;;;;;;;;7379614;19;20007;-72
2021/12/04 08:08:09;;;;;;;2.15;0.88;;;;;;;;;;7385157;19;20076;-73
2021/12/04 08:10:35;;;;;;;1.50;0.80;;;;;;;;;;7384616;19;20018;-75
2021/12/04 08:13:02;;;;;;;1.42;0.80;;;;;;;;;;7385081;19;20017;-75
2021/12/04 08:15:28;;;;;;;2.88;1.00;;;;;;;;;;7384362;19;20340;-73
2021/12/04 08:17:54;;;;;;;1.33;0.90;;;;;;;;;;7385594;19;20002;-72
2021/12/04 08:20:19;;;;;;;0.88;0.88;;;;;;;;;;7384401;19;21685;-73
2021/12/04 08:22:45;;;;;;;1.00;0.90;;;;;;;;;;7384421;19;20007;-73
2021/12/04 08:25:13;;;;;;;20.38;8.95;;;;;;;;;;7384161;19;20006;-72
2021/12/04 08:27:39;;;;;;;4.25;2.25;;;;;;;;;;7384960;19;20009;-72
2021/12/04 08:30:07;;;;;;;2.53;1.48;;;;;;;;;;7381847;19;20029;-73
2021/12/04 08:32:32;;;;;;;2.05;1.10;;;;;;;;;;7384631;19;20029;-74
2021/12/04 08:34:58;;;;;;;1.23;1.02;;;;;;;;;;7381247;19;20910;-74
2021/12/04 08:37:23;;;;;;;1.48;0.90;;;;;;;;;;7382403;19;20023;-73
2021/12/04 08:39:49;;;;;;;1.48;0.88;;;;;;;;;;7381726;19;20035;-74
2021/12/04 08:42:15;;;;;;;2.17;1.30;;;;;;;;;;7383262;19;20465;-73
2021/12/04 08:44:41;;;;;;;6.03;2.40;;;;;;;;;;7381172;19;20512;-73
2021/12/04 08:47:06;;;;;;;3.33;1.23;;;;;;;;;;7382262;19;20011;-74
2021/12/04 08:49:33;;;;;;;2.55;0.90;;;;;;;;;;7382682;19;20010;-74
2021/12/04 08:52:00;;;;;;;0.82;0.80;;;;;;;;;;7382482;19;20629;-76
2021/12/04 08:54:26;;;;;;;0.73;0.52;;;;;;;;;;7380757;19;20345;-73
2021/12/04 08:56:51;;;;;;;1.13;0.90;;;;;;;;;;7380989;19;20007;-73
2021/12/04 08:59:17;;;;;;;1.40;1.00;;;;;;;;;;7379426;19;20502;-73
2021/12/04 09:01:43;;;;;;;1.67;1.15;;;;;;;;;;7380813;19;20046;-72
2021/12/04 09:04:15;;;;;;;1.48;1.27;;;;;;;;;;7374770;19;20575;-76
2021/12/04 09:06:41;;;;;;;2.90;1.27;;;;;;;;;;7380483;19;20040;-74
2021/12/04 09:09:08;;;;;;;3.88;1.20;;;;;;;;;;7382504;19;20249;-72
2021/12/04 09:11:42;;;;;;;1.85;1.10;;;;;;;;;;7376457;19;20003;-73
2021/12/04 09:14:08;;;;;;;3.15;1.23;;;;;;;;;;7379916;19;20074;-74
2021/12/04 09:16:34;;;;;;;1.98;0.90;;;;;;;;;;7381085;19;20002;-75
2021/12/04 09:19:00;;;;;;;0.85;0.82;;;;;;;;;;7376526;19;20014;-74
2021/12/04 09:21:27;;;;;;;3.85;1.30;;;;;;;;;;7378515;19;20010;-74
2021/12/04 09:24:02;;;;;;;1.83;1.15;;;;;;;;;;7383151;19;20027;-73
2021/12/04 09:29:35;;;;;;;5.85;1.75;;;;;;;;;;7388718;19;20010;-75
2021/12/04 10:34:12;;;;;;;2.05;1.65;;;;;;;;;;7383262;19;20044;-78
2021/12/04 10:36:39;;;;;;;1.17;0.90;;;;;;;;;;7382182;19;20014;-75
2021/12/04 10:39:08;;;;;;;1.70;0.98;;;;;;;;;;7381781;19;20038;-77
2021/12/04 10:41:44;;;;;;;1.02;0.75;;;;;;;;;;7382846;19;20022;-76
2021/12/04 10:44:24;;;;;;;0.70;0.50;;;;;;;;;;7382153;19;20023;-76
2021/12/04 10:47:12;;;;;;;0.30;0.30;;;;;;;;;;7382685;19;20393;-76
2021/12/04 10:55:19;;;;;;;4.20;1.38;;;;;;;;;;7381937;19;20007;-77
2021/12/04 11:23:26;;;;;;;0.55;0.32;;;;;;;;;;7382398;19;19990;-75
2021/12/04 11:39:21;;;;;;;1.40;0.45;;;;;;;;;;7379341;19;20364;-80
2021/12/04 11:45:10;;;;;;;0.80;0.55;;;;;;;;;;7383944;19;20015;-73
2021/12/04 11:47:07;;;;;;;;;;;;;;;;;;7380486;19;20023;-77
2021/12/04 11:49:33;;;;;;;0.95;0.32;;;;;;;;;;7374681;19;19919;-76
2021/12/04 11:52:07;;;;;;;0.20;0.20;;;;;;;;;;7382385;19;20010;-75
2021/12/04 11:54:42;;;;;;;0.20;0.20;;;;;;;;;;7380758;19;20002;-79
2021/12/04 11:57:10;;;;;;;1.63;0.50;;;;;;;;;;7382786;19;20723;-77
2021/12/04 11:59:38;;;;;;;0.28;0.20;;;;;;;;;;7379022;19;20003;-76
2021/12/04 12:02:08;;;;;;;0.55;0.30;;;;;;;;;;7380275;19;20143;-74
2021/12/04 12:04:40;;;;;;;2.47;0.30;;;;;;;;;;7382748;19;20018;-76
2021/12/04 12:07:27;;;;;;;0.30;0.20;;;;;;;;;;7380896;19;20036;-75
2021/12/04 12:10:05;;;;;;;0.73;0.40;;;;;;;;;;7379742;19;20028;-75
2021/12/04 12:12:33;;;;;;;0.10;0.10;;;;;;;;;;7376079;19;20003;-77
2021/12/04 12:15:03;;;;;;;0.47;0.30;;;;;;;;;;7377545;19;20018;-80
2021/12/04 12:17:39;;;;;;;2.65;1.20;;;;;;;;;;7382529;19;20011;-77
2021/12/04 12:20:10;;;;;;;0.20;0.20;;;;;;;;;;7377266;19;20027;-79
2021/12/04 12:22:43;;;;;;;0.43;0.20;;;;;;;;;;7372457;19;19994;-74
2021/12/04 12:25:21;;;;;;;0.93;0.40;;;;;;;;;;7376750;19;20757;-76
2021/12/04 12:27:57;;;;;;;0.30;0.30;;;;;;;;;;7379042;19;20021;-78
2021/12/04 12:36:04;;;;;;;0.40;0.25;;;;;;;;;;7386532;19;20007;-78
2021/12/04 12:38:38;;;;;;;0.40;0.40;;;;;;;;;;7383862;19;20283;-78
2021/12/04 12:41:20;;;;;;;0.82;0.60;;;;;;;;;;7374727;19;20019;-78
2021/12/04 12:43:51;;;;;;;1.10;0.70;;;;;;;;;;7379965;19;20011;-78
2021/12/04 12:46:18;;;;;;;1.10;0.40;;;;;;;;;;7378893;19;19998;-76
2021/12/04 12:48:51;;;;;;;0.40;0.17;;;;;;;;;;7381584;19;20086;-78
2021/12/04 12:51:33;;;;;;;0.22;0.22;;;;;;;;;;7377300;19;20002;-76
2021/12/04 12:54:03;;;;;;;0.30;0.30;;;;;;;;;;7379653;19;20204;-76
2021/12/04 12:56:30;;;;;;;3.88;0.28;;;;;;;;;;7376328;19;20142;-76
2021/12/04 13:12:49;;;;;;;0.30;0.28;;;;;;;;;;7387270;19;20014;-76
2021/12/04 13:15:37;;;;;;;0.20;0.20;;;;;;;;;;7393859;19;20010;-75
2021/12/04 13:18:20;;;;;;;0.28;0.22;;;;;;;;;;7387823;19;20035;-81
2021/12/04 13:20:46;;;;;;;0.28;0.20;;;;;;;;;;7388494;19;20341;-79
2021/12/04 13:23:13;;;;;;;0.20;0.20;;;;;;;;;;7390870;19;20445;-75
2021/12/04 13:25:48;;;;;;;0.50;0.20;;;;;;;;;;7385260;19;20451;-82
2021/12/04 13:28:21;;;;;;;0.30;0.30;;;;;;;;;;7384716;19;20010;-78
2021/12/04 13:30:47;;;;;;;0.20;0.20;;;;;;;;;;7382028;19;20046;-73
2021/12/04 13:33:12;;;;;;;0.20;0.20;;;;;;;;;;7387485;19;20015;-82
2021/12/04 13:35:38;;;;;;;0.52;0.22;;;;;;;;;;7389444;19;20002;-80
2021/12/04 13:38:05;;;;;;;0.30;0.20;;;;;;;;;;7389592;19;20014;-82
2021/12/04 13:40:31;;;;;;;0.10;0.10;;;;;;;;;;7384468;19;20007;-77
2021/12/04 13:42:57;;;;;;;0.30;0.20;;;;;;;;;;7374031;19;20013;-74
2021/12/04 13:45:22;;;;;;;0.22;0.22;;;;;;;;;;7381015;19;20002;-75
2021/12/04 13:47:53;;;;;;;0.28;0.20;;;;;;;;;;7382607;19;20026;-78
2021/12/04 13:52:54;;;;;;;;;;;;;;;;;;7383665;19;20112;-75
2021/12/04 13:55:20;;;;;;;0.20;0.20;;;;;;;;;;7381631;19;20054;-75
2021/12/04 13:57:46;;;;;;;0.10;0.10;;;;;;;;;;7383372;19;20082;-74
2021/12/04 14:00:13;;;;;;;0.80;0.10;;;;;;;;;;7378456;19;20493;-78
2021/12/04 14:02:39;;;;;;;0.15;0.15;;;;;;;;;;7346749;19;20026;-78
2021/12/04 14:05:19;;;;;;;0.45;0.10;;;;;;;;;;7378914;19;20019;-78
2021/12/04 14:07:58;;;;;;;0.20;0.13;;;;;;;;;;7383197;19;20035;-76
2021/12/04 14:10:37;;;;;;;1.27;0.10;;;;;;;;;;7371966;19;20040;-75
2021/12/04 14:13:04;;;;;;;0.20;0.20;;;;;;;;;;7378490;19;20006;-76
2021/12/04 14:15:31;;;;;;;0.13;0.13;;;;;;;;;;7373795;19;20010;-75
2021/12/04 14:18:01;;;;;;;0.60;0.28;;;;;;;;;;7376600;19;20010;-75
2021/12/04 14:20:28;;;;;;;0.50;0.50;;;;;;;;;;7374138;19;20078;-74
2021/12/04 14:22:55;;;;;;;0.60;0.40;;;;;;;;;;7380317;19;20036;-77
2021/12/04 14:25:22;;;;;;;0.73;0.30;;;;;;;;;;7384540;19;20062;-75
2021/12/04 14:27:49;;;;;;;1.20;0.60;;;;;;;;;;7384259;19;20002;-75
2021/12/04 14:30:34;;;;;;;0.20;0.20;;;;;;;;;;7380787;19;20040;-75
2021/12/04 14:33:02;;;;;;;0.52;0.30;;;;;;;;;;7379047;19;20331;-75
2021/12/04 14:35:33;;;;;;;0.30;0.30;;;;;;;;;;7378009;19;20024;-75
2021/12/04 14:38:05;;;;;;;0.35;0.32;;;;;;;;;;7388340;19;20009;-78
2021/12/04 14:40:35;;;;;;;0.50;0.20;;;;;;;;;;7385077;19;20495;-78
2021/12/04 14:43:03;;;;;;;2.92;0.10;;;;;;;;;;7381137;19;20385;-78
2021/12/04 14:45:31;;;;;;;0.50;0.30;;;;;;;;;;7383388;19;20074;-80
2021/12/04 14:48:09;;;;;;;0.40;0.20;;;;;;;;;;7379558;19;20003;-77
2021/12/04 14:50:39;;;;;;;0.60;0.57;;;;;;;;;;7380703;19;20144;-81
2021/12/04 14:53:07;;;;;;;0.60;0.60;;;;;;;;;;7381736;19;20061;-79
2021/12/04 14:55:37;;;;;;;0.30;0.30;;;;;;;;;;7384726;19;20011;-79
2021/12/04 14:58:24;;;;;;;0.90;0.47;;;;;;;;;;7384572;19;20034;-75
2021/12/04 15:00:51;;;;;;;2.53;0.40;;;;;;;;;;7382616;19;19999;-77
2021/12/04 15:03:41;;;;;;;0.90;0.45;;;;;;;;;;7384097;19;20077;-77
2021/12/04 15:06:08;;;;;;;0.50;0.50;;;;;;;;;;7380232;19;20349;-75
2021/12/04 15:08:39;;;;;;;0.73;0.55;;;;;;;;;;7381427;19;20011;-75
2021/12/04 15:11:08;;;;;;;0.60;0.30;;;;;;;;;;7380170;19;20017;-75
2021/12/04 15:13:37;;;;;;;1.10;0.70;;;;;;;;;;7381078;19;20444;-78
2021/12/04 15:16:06;;;;;;;0.77;0.45;;;;;;;;;;7376664;19;20038;-75
2021/12/04 15:18:39;;;;;;;0.43;0.40;;;;;;;;;;7379526;19;20005;-75
2021/12/04 15:21:12;;;;;;;0.57;0.40;;;;;;;;;;7348211;19;20007;-77
2021/12/04 15:23:39;;;;;;;0.30;0.30;;;;;;;;;;7379788;19;20006;-75
2021/12/04 15:26:20;;;;;;;0.25;0.25;;;;;;;;;;7380548;19;20637;-78
2021/12/04 15:28:51;;;;;;;0.32;0.20;;;;;;;;;;7375922;19;20006;-75
2021/12/04 15:31:18;;;;;;;0.32;0.32;;;;;;;;;;7374762;19;20028;-76
2021/12/04 15:33:47;;;;;;;0.40;0.40;;;;;;;;;;7378009;19;19998;-75
2021/12/04 15:36:34;;;;;;;0.40;0.30;;;;;;;;;;7377768;19;20024;-75
2021/12/04 15:39:06;;;;;;;0.30;0.30;;;;;;;;;;7378460;19;20011;-75
2021/12/04 15:54:25;;;;;;;0.77;0.22;;;;;;;;;;7379289;19;20456;-79
2021/12/04 15:56:54;;;;;;;0.90;0.35;;;;;;;;;;7373755;19;20010;-78
2021/12/04 15:59:30;;;;;;;0.28;0.28;;;;;;;;;;7376835;19;20528;-78
2021/12/04 16:02:11;;;;;;;0.90;0.40;;;;;;;;;;7374594;19;20078;-78
2021/12/04 16:04:36;;;;;;;0.20;0.20;;;;;;;;;;7378636;19;20007;-77
2021/12/04 16:07:03;;;;;;;1.77;0.22;;;;;;;;;;7375671;19;19999;-77
2021/12/04 16:09:32;;;;;;;0.40;0.40;;;;;;;;;;7377576;19;20571;-77
2021/12/04 16:12:06;;;;;;;0.20;0.20;;;;;;;;;;7372601;19;20010;-77
2021/12/04 16:14:39;;;;;;;0.57;0.57;;;;;;;;;;7375129;19;20056;-77
2021/12/04 16:17:06;;;;;;;1.48;0.40;;;;;;;;;;7376381;19;20576;-77
2021/12/04 16:19:33;;;;;;;0.70;0.50;;;;;;;;;;7376613;19;20010;-78
2021/12/04 16:22:07;;;;;;;2.42;1.75;;;;;;;;;;7374263;19;20033;-78
2021/12/04 16:24:35;;;;;;;2.00;0.98;;;;;;;;;;7380887;19;20019;-79
2021/12/04 16:27:09;;;;;;;2.72;1.83;;;;;;;;;;7390618;19;20429;-79
2021/12/04 16:29:36;;;;;;;3.57;1.50;;;;;;;;;;7383487;19;20850;-77
2021/12/04 16:35:16;;;;;;;2.92;0.47;;;;;;;;;;7383127;19;20267;-79
2021/12/04 16:37:45;;;;;;;2.08;0.40;;;;;;;;;;7387438;19;20006;-77
2021/12/04 16:40:21;;;;;;;0.75;0.60;;;;;;;;;;7385557;19;20010;-77
2021/12/04 16:42:59;;;;;;;0.57;0.57;;;;;;;;;;7391963;19;20010;-77
2021/12/04 16:45:26;;;;;;;0.60;0.20;;;;;;;;;;7394068;19;20111;-78
2021/12/04 16:47:53;;;;;;;0.77;0.40;;;;;;;;;;7394272;19;20038;-78
2021/12/04 16:50:23;;;;;;;1.15;0.40;;;;;;;;;;7389766;19;20607;-77
2021/12/04 16:58:19;;;;;;;0.88;0.60;;;;;;;;;;7391268;19;20468;-78
2021/12/04 17:00:51;;;;;;;0.60;0.40;;;;;;;;;;7390793;19;20543;-76
2021/12/04 17:03:16;;;;;;;0.50;0.47;;;;;;;;;;7389544;19;19998;-78
2021/12/04 17:05:43;;;;;;;0.85;0.70;;;;;;;;;;7389542;19;20506;-78
2021/12/04 17:08:09;;;;;;;1.60;0.65;;;;;;;;;;7390422;19;20002;-78
2021/12/04 17:10:35;;;;;;;1.42;0.70;;;;;;;;;;7390577;19;20471;-79
2021/12/04 17:13:01;;;;;;;0.90;0.52;;;;;;;;;;7392012;19;20014;-78
2021/12/04 17:15:28;;;;;;;1.00;0.68;;;;;;;;;;7390654;19;20006;-78
2021/12/04 17:17:54;;;;;;;0.50;0.50;;;;;;;;;;7390361;19;20007;-76
2021/12/04 17:20:21;;;;;;;0.65;0.52;;;;;;;;;;7385266;19;20017;-78
2021/12/04 17:22:48;;;;;;;3.72;1.98;;;;;;;;;;7391966;19;20006;-77
2021/12/04 17:25:14;;;;;;;5.78;3.47;;;;;;;;;;7391457;19;20035;-77
2021/12/04 17:27:40;;;;;;;0.93;0.60;;;;;;;;;;7392000;19;19999;-78
2021/12/04 17:30:09;;;;;;;1.30;0.55;;;;;;;;;;7387986;19;20089;-77
2021/12/04 17:32:35;;;;;;;0.40;0.40;;;;;;;;;;7391036;19;20465;-77
2021/12/04 17:35:03;;;;;;;0.88;0.55;;;;;;;;;;7390473;19;20021;-77
2021/12/04 17:37:29;;;;;;;0.40;0.28;;;;;;;;;;7391736;19;20393;-77
2021/12/04 17:39:56;;;;;;;0.30;0.20;;;;;;;;;;7389198;19;20010;-78
2021/12/04 17:42:25;;;;;;;0.93;0.38;;;;;;;;;;7390804;19;19999;-79
2021/12/04 17:44:53;;;;;;;1.15;0.50;;;;;;;;;;7389364;19;20007;-78
2021/12/04 17:47:20;;;;;;;1.67;1.15;;;;;;;;;;7385563;19;20041;-77
2021/12/04 17:49:47;;;;;;;0.80;0.60;;;;;;;;;;7388738;19;20021;-79
2021/12/04 17:52:12;;;;;;;0.63;0.60;;;;;;;;;;7391049;19;20464;-77
2021/12/04 17:54:37;;;;;;;0.50;0.50;;;;;;;;;;7386799;19;20001;-77
2021/12/04 17:57:03;;;;;;;1.02;0.73;;;;;;;;;;7388176;19;20002;-79
2021/12/04 17:59:29;;;;;;;0.70;0.70;;;;;;;;;;7386300;19;20084;-77
2021/12/04 18:02:15;;;;;;;1.38;0.60;;;;;;;;;;7385134;19;20026;-77
2021/12/04 18:04:44;;;;;;;0.90;0.65;;;;;;;;;;7388466;19;20114;-77
2021/12/04 18:07:15;;;;;;;3.28;1.00;;;;;;;;;;7387367;19;20019;-78
2021/12/04 18:09:41;;;;;;;0.77;0.60;;;;;;;;;;7384775;19;20484;-77
2021/12/04 18:12:11;;;;;;;1.38;0.70;;;;;;;;;;7386994;19;20006;-77
2021/12/04 18:14:39;;;;;;;1.80;0.75;;;;;;;;;;7385695;19;20014;-77
2021/12/04 18:17:05;;;;;;;1.58;0.80;;;;;;;;;;7387754;19;20346;-77
2021/12/04 18:19:30;;;;;;;1.73;0.85;;;;;;;;;;7386358;19;20455;-77
2021/12/04 18:21:58;;;;;;;1.23;0.90;;;;;;;;;;7386609;19;19998;-78
2021/12/04 18:24:25;;;;;;;0.77;0.68;;;;;;;;;;7386209;19;20319;-77